CheckWX is a tool to help pilots better visualize weather data.  It is not intended as a substitute for an official pre-flight weather briefing.

19:19:29 UTC

KLXV METAR
Lake County Airport
Leadville, Colorado, USA
Current

26 mins ago

KLXV 211853Z AUTO 00000KT 1 1/4SM -SN BR FEW009 BKN019 OVC032 M03/M04 A2997 RMK AO2 SLP090 P0005 T10281039
Observed
Nov-21 @ 18:53 UTC
Visibility
1 1/4 SM
Flight Rules
IFR
Conditions
Light Snow, Mist
Cloud Levels
  • Few at 900' AGL
  • Broken at 1,900' AGL
  • Overcast at 3,200' AGL
Temperature
-3°C / 27°F
Dewpoint
-4°C / 25°F
Humidity
93%
Altimeter
29.97" Hg
Pressure
1014.92 hPa
Current Rain
0.05"
Previous

55 mins ago

KLXV 211824Z AUTO 00000KT 1/4SM SN FZFG VV008 M04/M05 A2998 RMK AO2 P0003 T10391050
Observed
Nov-21 @ 18:24 UTC
Visibility
1/4 SM
Flight Rules
LIFR
Conditions
Snow, Freezing Fog
Cloud Levels
  • Vertical visibility at 800' AGL
Temperature
-4°C / 25°F
Dewpoint
-5°C / 23°F
Humidity
93%
Altimeter
29.98" Hg
Pressure
1015.22 hPa
Current Rain
0.03"
Previous

1 hour ago

KLXV 211808Z AUTO 14008KT 1/4SM SN FZFG FEW003 OVC014 M04/M06 A2998 RMK AO2 P0001 T10441056
Observed
Nov-21 @ 18:08 UTC
Wind
  • 140° at 8 KTS
Visibility
1/4 SM
Flight Rules
LIFR
Conditions
Snow, Freezing Fog
Cloud Levels
  • Few at 300' AGL
  • Overcast at 1,400' AGL
Temperature
-4°C / 25°F
Dewpoint
-6°C / 21°F
Humidity
86%
Altimeter
29.98" Hg
Pressure
1015.22 hPa
Current Rain
0.01"